Time;durP1;ratioP1;P1;durP2;ratioP2;P2;SDS_P1;SDS_P2;PMS_P1;PMS_P2;Temp;Humidity;BMP_temperature;BMP_pressure;BME280_temperature;BME280_humidity;BME280_pressure;Samples;Min_cycle;Max_cycle;Signal;HPM_P1;HPM_P2
2022/05/23 00:01:49;;;;;;;11.70;9.40;;;;;;;29.40;48.97;101430.03;4166048;28;20091;-70
2022/05/23 00:03:51;;;;;;;14.20;9.75;;;;;;;29.41;49.22;101426.88;4166137;28;20045;-70
2022/05/23 00:06:03;;;;;;;10.43;9.05;;;;;;;29.42;49.32;101430.56;4148752;28;20033;-69
2022/05/23 00:08:05;;;;;;;13.35;10.25;;;;;;;29.42;49.18;101436.19;4165485;28;20539;-70
2022/05/23 00:10:11;;;;;;;13.40;9.27;;;;;;;29.42;49.50;101433.38;4165868;28;20042;-70
2022/05/23 00:12:12;;;;;;;10.10;9.13;;;;;;;29.41;49.14;101449.44;4165889;28;20041;-69
2022/05/23 00:14:15;;;;;;;10.48;9.40;;;;;;;29.37;49.19;101460.56;4165996;28;20049;-70
2022/05/23 00:16:25;;;;;;;10.20;8.65;;;;;;;29.40;49.20;101453.44;4166101;28;20456;-70
2022/05/23 00:18:26;;;;;;;10.40;9.27;;;;;;;29.41;49.38;101457.06;4166056;28;20084;-69
2022/05/23 00:20:30;;;;;;;10.45;8.48;;;;;;;29.40;49.39;101453.44;4165683;28;20374;-70
2022/05/23 00:22:32;;;;;;;9.95;8.82;;;;;;;29.41;49.25;101454.25;4165766;28;20037;-70
2022/05/23 00:24:34;;;;;;;12.27;9.25;;;;;;;29.40;49.24;101452.59;4165837;28;20033;-70
2022/05/23 00:26:36;;;;;;;9.90;8.90;;;;;;;29.40;49.24;101444.13;4165515;28;20080;-70
2022/05/23 00:28:40;;;;;;;9.13;8.23;;;;;;;29.34;49.39;101427.38;4165789;28;20041;-70
2022/05/23 00:30:41;;;;;;;10.07;8.50;;;;;;;29.40;49.29;101441.31;4165186;28;20490;-69
2022/05/23 00:35:18;;;;;;;9.48;8.48;;;;;;;29.18;49.39;101397.97;4166855;28;20099;-70
2022/05/23 00:37:21;;;;;;;9.75;8.75;;;;;;;29.37;49.27;101426.75;4165539;28;20037;-70
2022/05/23 00:39:23;;;;;;;9.75;8.75;;;;;;;29.38;49.19;101434.03;4166258;28;20033;-70
2022/05/23 00:44:05;;;;;;;9.13;7.90;;;;;;;29.35;49.04;101412.13;4152303;28;20105;-70
2022/05/23 00:46:12;;;;;;;9.00;8.10;;;;;;;29.40;49.25;101418.78;4165519;28;20041;-70
2022/05/23 00:48:15;;;;;;;11.18;8.32;;;;;;;29.36;49.10;101419.41;4166354;28;20045;-70
2022/05/23 00:50:20;;;;;;;12.57;8.65;;;;;;;29.40;49.19;101421.59;4166024;28;20443;-70
2022/05/23 00:52:39;;;;;;;10.68;8.73;;;;;;;29.35;49.01;101431.84;4165677;28;20041;-70
2022/05/23 00:54:49;;;;;;;8.70;7.78;;;;;;;29.38;49.12;101428.38;4168964;28;20472;-71
2022/05/23 00:56:53;;;;;;;9.30;8.40;;;;;;;29.38;49.12;101431.22;4180066;28;20041;-69
2022/05/23 00:58:59;;;;;;;9.50;8.60;;;;;;;29.38;49.10;101431.22;4181387;28;20033;-70
2022/05/23 01:01:06;;;;;;;8.88;7.97;;;;;;;29.39;49.21;101437.69;4166291;28;20033;-70
2022/05/23 01:03:11;;;;;;;9.90;8.57;;;;;;;29.26;49.46;101411.25;4188592;28;20044;-70
2022/05/23 01:05:16;;;;;;;8.40;7.55;;;;;;;29.38;49.06;101416.28;4186063;28;20041;-70
2022/05/23 01:07:18;;;;;;;8.98;8.07;;;;;;;29.38;49.25;101421.94;4181233;28;20044;-69
2022/05/23 01:09:22;;;;;;;9.05;7.93;;;;;;;29.37;49.06;101429.56;4181971;28;20045;-71
2022/05/23 01:11:25;;;;;;;12.05;8.10;;;;;;;29.36;48.96;101436.31;4165802;28;20045;-70
2022/05/23 01:13:26;;;;;;;8.93;7.95;;;;;;;29.36;49.11;101441.13;4181755;28;20037;-70
2022/05/23 01:15:30;;;;;;;8.23;7.43;;;;;;;29.35;49.09;101445.94;4183352;28;20037;-70
2022/05/23 01:17:32;;;;;;;9.63;7.90;;;;;;;29.35;49.12;101454.41;4185224;28;20476;-70
2022/05/23 01:19:33;;;;;;;8.52;7.63;;;;;;;29.37;49.26;101469.03;4195722;28;20101;-69
2022/05/23 01:21:37;;;;;;;8.35;7.55;;;;;;;29.36;49.04;101474.97;4174807;28;20041;-70
2022/05/23 01:23:48;;;;;;;9.00;8.10;;;;;;;29.35;49.00;101479.78;4170580;28;20045;-70
2022/05/23 01:25:52;;;;;;;9.45;8.38;;;;;;;29.36;48.90;101492.72;4194077;28;20037;-69
2022/05/23 01:27:54;;;;;;;8.18;7.38;;;;;;;29.37;48.70;101500.03;4177137;28;20079;-69
2022/05/23 01:29:58;;;;;;;8.20;7.13;;;;;;;29.36;48.91;101512.44;4173645;28;20083;-69
2022/05/23 01:31:59;;;;;;;8.73;7.80;;;;;;;29.36;48.87;101526.53;4177704;28;20036;-70
2022/05/23 01:34:01;;;;;;;8.57;7.70;;;;;;;29.36;48.98;101537.81;4180799;28;20098;-69
2022/05/23 01:36:06;;;;;;;8.65;7.65;;;;;;;29.36;49.08;101554.72;4173778;28;20037;-69
2022/05/23 01:38:07;;;;;;;8.80;7.75;;;;;;;29.35;48.91;101558.72;4167079;28;20062;-69
2022/05/23 01:40:13;;;;;;;7.95;7.15;;;;;;;29.34;48.81;101573.97;4164160;28;20041;-69
2022/05/23 01:42:14;;;;;;;8.75;7.78;;;;;;;29.34;48.71;101587.25;4175107;28;20044;-69
2022/05/23 01:44:16;;;;;;;7.40;6.57;;;;;;;29.34;48.93;101595.69;4182368;28;20033;-69
2022/05/23 01:46:17;;;;;;;7.28;6.57;;;;;;;29.27;48.90;101607.41;4179426;28;20033;-69
2022/05/23 01:48:18;;;;;;;8.05;7.25;;;;;;;29.34;48.72;101624.72;4181158;28;20094;-69
2022/05/23 01:50:23;;;;;;;8.60;6.78;;;;;;;29.34;48.64;101636.00;4179429;28;20091;-69
2022/05/23 01:52:24;;;;;;;7.25;6.55;;;;;;;29.32;48.85;101631.81;4181297;28;20095;-69
2022/05/23 01:54:25;;;;;;;7.82;7.03;;;;;;;29.33;48.87;101654.06;4168980;28;20088;-70
2022/05/23 01:56:27;;;;;;;7.88;6.88;;;;;;;29.27;48.74;101652.50;4179398;28;20050;-70
2022/05/23 02:03:11;;;;;;;7.63;6.53;;;;;;;29.33;48.92;101673.81;4171388;28;20095;-70
2022/05/23 02:05:12;;;;;;;8.02;6.75;;;;;;;29.32;48.95;101683.41;4169134;28;20037;-71
2022/05/23 02:07:14;;;;;;;8.07;7.00;;;;;;;29.33;49.14;101693.53;4168241;28;20029;-70
2022/05/23 02:09:26;;;;;;;8.95;7.78;;;;;;;29.30;49.04;101685.72;4179593;28;20540;-70
2022/05/23 02:11:30;;;;;;;8.70;6.90;;;;;;;29.35;49.26;101693.19;4176681;28;20056;-70
2022/05/23 02:13:34;;;;;;;16.10;7.20;;;;;;;29.34;49.14;101698.00;4169770;28;20518;-69
2022/05/23 02:15:38;;;;;;;9.20;7.13;;;;;;;29.35;49.28;101696.84;4197325;28;20098;-69
2022/05/23 02:17:39;;;;;;;10.40;8.07;;;;;;;29.29;49.11;101684.06;4192945;28;20326;-69
2022/05/23 02:19:41;;;;;;;8.98;7.80;;;;;;;29.34;48.96;101695.19;4180710;28;20049;-68
2022/05/23 02:21:43;;;;;;;9.05;7.57;;;;;;;29.33;49.17;101685.06;4179939;28;20033;-69
2022/05/23 02:23:44;;;;;;;10.55;8.38;;;;;;;29.35;49.47;101694.03;4179457;28;20099;-69
2022/05/23 02:25:45;;;;;;;8.75;7.57;;;;;;;29.37;49.32;101694.56;4181659;28;20419;-70
2022/05/23 02:27:50;;;;;;;12.05;7.65;;;;;;;29.36;49.38;101695.69;4180708;28;20106;-69
2022/05/23 02:29:51;;;;;;;;;;;;;;;29.36;49.19;101695.69;4181777;28;20098;-69
2022/05/23 02:31:55;;;;;;;10.68;7.72;;;;;;;29.42;49.14;101692.78;4182060;28;19913;-69
2022/05/23 02:33:57;;;;;;;10.80;7.18;;;;;;;29.42;49.42;101704.03;4179030;28;20175;-68
2022/05/23 02:35:58;;;;;;;7.85;6.95;;;;;;;29.42;48.88;101704.88;4165950;28;20118;-68
2022/05/23 02:38:00;;;;;;;8.18;7.32;;;;;;;29.41;49.20;101708.00;4173522;28;20087;-69
2022/05/23 02:40:02;;;;;;;10.38;7.35;;;;;;;29.38;49.26;101699.03;4179782;28;20052;-69
2022/05/23 02:42:07;;;;;;;8.50;7.50;;;;;;;29.35;49.06;101694.03;4181142;28;20489;-71
2022/05/23 02:44:09;;;;;;;8.50;7.10;;;;;;;29.40;49.23;101697.88;4176964;28;20731;-69
2022/05/23 02:46:10;;;;;;;10.15;7.65;;;;;;;29.34;49.46;101698.00;4182233;28;20098;-70
2022/05/23 02:48:12;;;;;;;7.88;6.93;;;;;;;29.29;49.30;101677.59;4182309;28;20412;-69
2022/05/23 02:50:14;;;;;;;11.80;7.15;;;;;;;29.31;49.34;101693.00;4177275;28;20039;-71
2022/05/23 02:52:18;;;;;;;7.63;6.93;;;;;;;29.38;49.25;101698.22;4165426;28;20038;-68
2022/05/23 02:54:20;;;;;;;8.25;7.43;;;;;;;29.33;49.16;101689.88;4168095;28;20508;-67
2022/05/23 02:56:21;;;;;;;8.82;6.93;;;;;;;29.35;49.30;101679.09;4168006;28;20034;-69
2022/05/23 02:58:23;;;;;;;8.00;7.25;;;;;;;29.38;49.49;101672.84;4167183;28;20546;-69
2022/05/23 03:00:25;;;;;;;7.22;6.53;;;;;;;29.37;49.20;101674.81;4180017;28;20041;-71
2022/05/23 03:04:47;;;;;;;9.13;7.50;;;;;;;29.35;49.19;101659.38;4185578;28;20087;-69
2022/05/23 03:06:51;;;;;;;7.95;7.15;;;;;;;29.40;49.22;101669.69;4181205;28;20041;-68
2022/05/23 03:08:53;;;;;;;7.28;6.60;;;;;;;29.40;49.49;101666.88;4182415;28;20074;-68
2022/05/23 03:10:58;;;;;;;11.82;7.47;;;;;;;29.38;49.52;101682.13;4169939;28;20034;-68
2022/05/23 03:12:59;;;;;;;8.65;7.22;;;;;;;29.37;49.53;101680.47;4180970;28;20041;-68
2022/05/23 03:15:05;;;;;;;7.47;6.68;;;;;;;29.36;49.18;101687.22;4184370;28;20099;-69
2022/05/23 03:17:07;;;;;;;8.27;6.95;;;;;;;29.37;49.35;101703.03;4186007;28;20087;-69
2022/05/23 03:19:08;;;;;;;9.07;7.40;;;;;;;29.36;49.46;101718.25;4187058;28;20033;-69
2022/05/23 03:26:58;;;;;;;7.05;6.35;;;;;;;29.38;49.21;101732.03;4179537;28;20091;-68
2022/05/23 03:28:20;;;;;;;12.27;7.85;;;;;;;29.37;49.38;101756.59;4171636;28;19913;-68
2022/05/23 03:30:24;;;;;;;7.22;6.45;;;;;;;29.44;49.19;101772.22;4169921;28;20424;-69
2022/05/23 03:32:34;;;;;;;;;;;;;;;29.41;49.37;101764.38;4172828;28;20042;-70
2022/05/23 03:34:36;;;;;;;7.70;6.78;;;;;;;29.45;49.20;101771.88;4173155;28;19959;-69
2022/05/23 03:36:38;;;;;;;8.25;7.35;;;;;;;29.42;48.97;101766.91;4172348;28;20083;-69
2022/05/23 03:38:39;;;;;;;7.88;6.57;;;;;;;29.42;49.31;101768.91;4165361;28;20034;-70
2022/05/23 03:40:41;;;;;;;10.32;7.40;;;;;;;29.40;49.52;101762.72;4186868;28;20036;-68
2022/05/23 03:42:42;;;;;;;8.35;7.15;;;;;;;29.40;49.58;101768.38;4187236;28;20059;-68
2022/05/23 03:44:49;;;;;;;7.50;6.80;;;;;;;29.31;49.08;101760.66;4172132;28;20042;-69
2022/05/23 03:46:51;;;;;;;7.97;6.75;;;;;;;29.37;49.31;101779.16;4175953;28;20409;-70
2022/05/23 03:48:54;;;;;;;7.50;6.80;;;;;;;29.34;49.40;101776.94;4186000;28;20045;-70
2022/05/23 03:50:55;;;;;;;7.65;6.60;;;;;;;29.31;49.28;101771.94;4187953;28;20079;-69
2022/05/23 03:53:01;;;;;;;7.43;6.72;;;;;;;29.29;48.97;101779.91;4172743;28;20050;-70
2022/05/23 03:55:02;;;;;;;9.57;7.10;;;;;;;29.30;49.36;101787.19;4169273;28;20096;-69
2022/05/23 03:57:04;;;;;;;6.65;5.95;;;;;;;29.31;49.30;101783.22;4169211;28;20045;-69
2022/05/23 03:59:06;;;;;;;7.63;6.35;;;;;;;29.30;49.18;101786.38;4171501;28;20034;-69
2022/05/23 04:01:13;;;;;;;7.30;6.60;;;;;;;29.22;49.61;101773.84;4183268;28;20044;-69
2022/05/23 04:03:16;;;;;;;8.00;6.93;;;;;;;29.30;49.38;101790.00;4184761;28;20460;-68
2022/05/23 04:05:17;;;;;;;9.13;6.93;;;;;;;29.31;49.46;101791.66;4170021;28;20037;-70
2022/05/23 04:07:19;;;;;;;8.10;6.35;;;;;;;29.30;49.38;101787.19;4174290;28;20033;-70
2022/05/23 04:09:23;;;;;;;9.10;6.55;;;;;;;29.29;49.39;101787.53;4175162;28;20099;-69
2022/05/23 04:11:24;;;;;;;8.02;6.47;;;;;;;29.30;49.45;101792.00;4172463;28;20042;-70
2022/05/23 04:13:28;;;;;;;8.02;6.75;;;;;;;29.29;49.37;101801.63;4177157;28;20160;-69
2022/05/23 04:15:33;;;;;;;8.05;7.25;;;;;;;29.29;49.52;101807.25;4174789;28;20033;-67
2022/05/23 04:17:35;;;;;;;7.47;6.75;;;;;;;29.25;49.56;101809.88;4182231;28;20036;-69
2022/05/23 04:19:37;;;;;;;7.22;6.38;;;;;;;29.29;49.44;101830.63;4189731;28;20435;-69
2022/05/23 04:21:43;;;;;;;7.63;6.93;;;;;;;29.30;49.33;101831.47;4186356;28;20086;-70
2022/05/23 04:23:47;;;;;;;7.07;6.05;;;;;;;29.29;49.30;101830.63;4184925;28;20033;-70
2022/05/23 04:25:49;;;;;;;8.27;7.30;;;;;;;29.23;49.59;101826.28;4184319;28;20106;-70
2022/05/23 04:27:50;;;;;;;8.35;7.22;;;;;;;29.26;49.49;101834.09;4184965;28;20041;-70
2022/05/23 04:29:54;;;;;;;9.07;7.65;;;;;;;29.29;49.39;101839.09;4185396;28;20041;-68
2022/05/23 04:31:56;;;;;;;7.82;6.40;;;;;;;29.25;49.44;101840.88;4184490;28;20086;-71
2022/05/23 04:36:21;;;;;;;8.13;6.85;;;;;;;29.24;49.46;101827.09;4185374;28;20072;-70
2022/05/23 04:38:28;;;;;;;8.18;6.70;;;;;;;29.30;49.58;101835.13;4182670;28;20033;-69
2022/05/23 04:40:30;;;;;;;8.07;6.78;;;;;;;29.31;49.71;101825.50;4173723;28;21128;-69
2022/05/23 04:42:34;;;;;;;9.00;7.10;;;;;;;29.14;49.61;101788.72;4167091;28;20087;-69
2022/05/23 04:44:36;;;;;;;7.63;6.93;;;;;;;29.29;49.72;101795.97;4165548;28;20466;-68
2022/05/23 04:49:39;;;;;;;8.40;6.72;;;;;;;29.32;49.76;101800.97;4174300;28;20029;-68
2022/05/23 04:51:19;;;;;;;7.70;6.55;;;;;;;29.32;49.46;101787.72;4172786;28;20095;-68
2022/05/23 04:53:20;;;;;;;7.30;6.60;;;;;;;29.29;49.59;101779.91;4178767;28;20033;-70
2022/05/23 04:55:22;;;;;;;7.07;6.38;;;;;;;29.30;49.63;101775.09;4167840;28;20068;-68
2022/05/23 04:57:23;;;;;;;7.82;7.03;;;;;;;29.31;49.50;101765.47;4166628;28;20049;-70
2022/05/23 04:59:27;;;;;;;7.65;6.75;;;;;;;29.30;49.65;101756.19;4166390;28;20039;-70
2022/05/23 05:01:29;;;;;;;10.20;6.10;;;;;;;29.24;49.38;101740.56;4173845;28;20466;-70
2022/05/23 05:03:30;;;;;;;6.72;6.05;;;;;;;29.29;49.73;101736.78;4177193;28;20037;-70
2022/05/23 05:05:41;;;;;;;8.00;6.90;;;;;;;29.30;49.53;101713.91;4163247;28;20049;-70
2022/05/23 05:07:43;;;;;;;7.15;6.38;;;;;;;29.31;49.49;101698.66;4166247;28;20040;-70
2022/05/23 05:09:47;;;;;;;7.45;6.68;;;;;;;29.30;49.60;101691.34;4165017;28;20096;-70
2022/05/23 05:11:48;;;;;;;6.90;6.20;;;;;;;29.30;49.57;101691.34;4165470;28;20045;-70
2022/05/23 05:13:52;;;;;;;7.75;6.50;;;;;;;29.30;49.31;101668.78;4165902;28;20313;-70
2022/05/23 05:15:59;;;;;;;7.60;6.57;;;;;;;29.29;49.66;101664.31;4166200;28;20033;-70
2022/05/23 05:18:03;;;;;;;7.32;6.60;;;;;;;29.29;49.68;101655.84;4165522;28;20037;-70
2022/05/23 05:20:05;;;;;;;7.47;6.15;;;;;;;29.19;49.63;101627.13;4170145;28;20091;-70
2022/05/23 05:22:06;;;;;;;7.50;6.75;;;;;;;29.24;49.63;101636.25;4178758;28;20468;-70
2022/05/23 05:24:08;;;;;;;8.45;7.18;;;;;;;29.21;49.92;101631.25;4164199;28;20459;-70
2022/05/23 05:26:09;;;;;;;8.50;6.50;;;;;;;29.29;49.47;101655.03;4170646;28;20063;-70
2022/05/23 05:28:11;;;;;;;7.93;6.55;;;;;;;29.29;49.72;101650.22;4175470;28;20037;-70
2022/05/23 05:30:19;;;;;;;7.45;6.75;;;;;;;29.23;49.56;101643.06;4165077;28;20092;-70
2022/05/23 05:32:29;;;;;;;6.72;6.13;;;;;;;29.27;49.41;101652.50;4168864;28;20053;-69
2022/05/23 05:34:39;;;;;;;6.60;6.00;;;;;;;29.27;49.61;101649.69;4169189;28;20041;-69
2022/05/23 05:36:44;;;;;;;7.15;6.45;;;;;;;29.24;49.96;101643.88;4179633;28;20040;-70
2022/05/23 05:39:17;;;;;;;7.07;6.22;;;;;;;29.20;49.45;101637.22;4181229;28;20480;-70
2022/05/23 05:41:22;;;;;;;8.27;6.28;;;;;;;29.25;49.43;101637.94;4161856;28;20099;-69
2022/05/23 05:43:29;;;;;;;7.25;6.30;;;;;;;29.24;49.74;101613.72;4180089;28;20447;-69
2022/05/23 05:45:40;;;;;;;6.55;5.95;;;;;;;29.28;49.39;101623.19;4164338;28;20049;-70
2022/05/23 05:47:45;;;;;;;6.80;6.20;;;;;;;29.28;49.45;101619.53;4173286;28;20087;-70
2022/05/23 05:49:49;;;;;;;;;;;;;;;29.26;49.44;101611.41;4171035;28;20041;-70
2022/05/23 05:52:00;;;;;;;7.03;6.03;;;;;;;29.31;49.35;101628.16;4171015;28;19920;-69
2022/05/23 05:54:05;;;;;;;7.43;5.65;;;;;;;29.30;49.18;101629.31;4170571;28;20072;-70
2022/05/23 05:56:10;;;;;;;6.47;5.32;;;;;;;29.29;49.30;101626.84;4146792;28;20038;-69
2022/05/23 05:58:11;;;;;;;8.95;5.55;;;;;;;29.24;49.53;101633.44;4175502;28;20447;-70
2022/05/23 06:00:16;;;;;;;6.53;5.90;;;;;;;29.28;49.61;101636.47;4179202;28;20566;-70
2022/05/23 06:02:17;;;;;;;6.22;5.18;;;;;;;29.20;49.56;101620.31;4166756;28;20041;-69
2022/05/23 06:04:19;;;;;;;6.03;5.32;;;;;;;29.25;49.21;101626.66;4164214;28;20091;-69
2022/05/23 06:13:22;;;;;;;5.85;5.25;;;;;;;29.25;49.27;101621.00;4180828;28;20098;-70
2022/05/23 06:15:24;;;;;;;5.57;5.07;;;;;;;29.24;49.30;101618.53;4166708;28;20428;-70
2022/05/23 06:17:28;;;;;;;6.57;5.45;;;;;;;28.94;49.21;101597.56;4168747;28;20445;-70
2022/05/23 06:19:30;;;;;;;6.60;4.83;;;;;;;29.24;49.23;101636.25;4180661;28;20033;-69
2022/05/23 06:21:31;;;;;;;6.78;3.90;;;;;;;29.21;48.55;101636.06;4158959;28;20283;-69
2022/05/23 06:23:33;;;;;;;5.43;4.60;;;;;;;29.19;48.56;101642.03;4168206;28;20037;-69
2022/05/23 06:25:35;;;;;;;6.82;4.15;;;;;;;29.13;48.84;101640.47;4165626;28;20041;-70
2022/05/23 06:27:36;;;;;;;6.47;4.25;;;;;;;29.13;48.46;101651.75;4164454;28;20443;-69
2022/05/23 06:29:41;;;;;;;5.03;4.30;;;;;;;29.13;48.98;101657.38;4176066;28;20087;-69
2022/05/23 06:31:46;;;;;;;5.25;3.88;;;;;;;29.13;48.33;101674.31;4176449;28;20034;-69
2022/05/23 06:33:47;;;;;;;5.15;4.65;;;;;;;29.12;48.36;101679.09;4164853;28;20037;-69
2022/05/23 06:35:49;;;;;;;4.70;4.22;;;;;;;29.17;48.48;101708.31;4166918;28;20115;-69
2022/05/23 06:37:51;;;;;;;4.60;4.20;;;;;;;29.15;48.57;101722.75;4172483;28;20045;-69
2022/05/23 06:39:52;;;;;;;4.78;4.38;;;;;;;29.16;48.54;101735.69;4172904;28;20045;-69
2022/05/23 06:41:54;;;;;;;4.13;3.72;;;;;;;29.16;48.56;101735.69;4175184;28;20048;-70
2022/05/23 06:43:58;;;;;;;4.38;3.42;;;;;;;29.14;48.02;101754.91;4170902;28;20072;-70
2022/05/23 06:45:59;;;;;;;4.43;3.70;;;;;;;29.14;48.13;101749.25;4178301;28;20029;-70
2022/05/23 06:48:01;;;;;;;4.60;3.35;;;;;;;29.13;47.98;101758.84;4182511;28;20103;-70
2022/05/23 06:50:03;;;;;;;5.65;3.30;;;;;;;29.11;47.85;101763.97;4165372;28;20457;-69
2022/05/23 06:52:04;;;;;;;4.93;3.33;;;;;;;29.05;47.50;101752.00;4172084;28;20042;-70
2022/05/23 06:54:06;;;;;;;4.53;3.70;;;;;;;29.10;47.58;101768.78;4175924;28;20459;-70
2022/05/23 06:56:16;;;;;;;4.28;3.30;;;;;;;29.09;47.99;101767.13;4183539;28;20099;-69
2022/05/23 06:58:21;;;;;;;5.35;3.28;;;;;;;29.08;47.99;101779.53;4170431;28;20033;-70
2022/05/23 07:00:22;;;;;;;;;;;;;;;29.07;48.07;101782.66;4168119;28;20049;-69
2022/05/23 07:02:24;;;;;;;3.60;3.30;;;;;;;29.10;47.75;101782.06;4167957;28;19959;-69
2022/05/23 07:12:19;;;;;;;3.50;3.20;;;;;;;29.11;47.20;101789.34;4166239;28;20029;-70
2022/05/23 07:13:52;;;;;;;3.85;3.15;;;;;;;29.07;47.32;101805.22;4170110;28;20132;-69
2022/05/23 07:15:56;;;;;;;3.22;2.92;;;;;;;29.05;46.85;101810.34;4168652;28;20057;-69
2022/05/23 07:17:57;;;;;;;4.20;3.00;;;;;;;29.03;46.69;101813.47;4168057;28;20041;-70
2022/05/23 07:19:59;;;;;;;4.40;2.75;;;;;;;29.03;46.64;101815.44;4167979;28;20083;-69
2022/05/23 07:22:02;;;;;;;4.75;2.30;;;;;;;29.00;46.41;101811.28;4150727;28;20045;-69
2022/05/23 07:24:06;;;;;;;4.18;2.83;;;;;;;28.98;46.10;101818.38;4168301;28;20056;-69
2022/05/23 07:26:16;;;;;;;3.33;3.03;;;;;;;28.99;46.39;101825.69;4167788;28;20038;-68
2022/05/23 07:28:17;;;;;;;2.97;2.40;;;;;;;28.98;46.04;101822.03;4168292;28;20087;-68
2022/05/23 07:30:21;;;;;;;3.00;2.55;;;;;;;28.95;46.52;101833.06;4167340;28;20037;-69
2022/05/23 07:32:23;;;;;;;2.80;2.50;;;;;;;28.97;46.34;101842.06;4175185;28;20468;-69
2022/05/23 07:34:28;;;;;;;5.28;2.95;;;;;;;28.93;46.44;101841.00;4184229;28;20431;-68
2022/05/23 07:36:29;;;;;;;4.55;3.05;;;;;;;28.96;45.93;101848.88;4181263;28;20050;-69
2022/05/23 07:38:30;;;;;;;2.55;2.35;;;;;;;28.96;46.55;101860.97;4171831;28;20404;-69
2022/05/23 07:40:34;;;;;;;3.55;2.80;;;;;;;28.96;46.45;101854.50;4183547;28;20037;-70
2022/05/23 07:42:36;;;;;;;3.75;3.28;;;;;;;28.95;46.53;101841.50;4180297;28;20037;-70
2022/05/23 07:44:40;;;;;;;3.45;2.45;;;;;;;28.95;46.04;101847.16;4167590;28;20042;-69
2022/05/23 07:46:45;;;;;;;2.78;2.38;;;;;;;28.93;46.07;101846.63;4166048;28;20096;-70
2022/05/23 07:48:49;;;;;;;2.53;2.08;;;;;;;28.92;45.50;101856.25;4174667;28;20033;-69
2022/05/23 07:50:50;;;;;;;3.22;2.50;;;;;;;28.92;45.03;101848.63;4182353;28;20546;-69
2022/05/23 08:02:10;;;;;;;2.70;2.50;;;;;;;28.86;44.66;101850.72;4185196;28;20078;-69
2022/05/23 08:04:11;;;;;;;2.58;2.38;;;;;;;28.84;45.19;101838.91;4166808;28;20179;-69
2022/05/23 08:06:13;;;;;;;2.50;2.30;;;;;;;28.85;44.68;101851.00;4184070;28;20102;-68
2022/05/23 08:08:15;;;;;;;2.20;2.00;;;;;;;28.83;44.54;101844.88;4184211;28;20542;-69
2022/05/23 08:10:20;;;;;;;2.45;2.25;;;;;;;28.82;44.35;101837.59;4182373;28;20456;-69
2022/05/23 08:12:24;;;;;;;2.47;2.20;;;;;;;28.81;44.38;101842.34;4166943;28;20440;-69
2022/05/23 08:14:25;;;;;;;4.47;1.98;;;;;;;28.80;44.57;101837.88;4166975;28;20108;-69
2022/05/23 08:16:30;;;;;;;1.80;1.70;;;;;;;28.80;44.01;101835.06;4181455;28;20041;-70
2022/05/23 08:18:32;;;;;;;3.97;2.15;;;;;;;28.74;43.58;101836.31;4182091;28;20102;-69
2022/05/23 08:20:36;;;;;;;3.47;2.15;;;;;;;28.78;44.02;101848.63;4182511;28;20040;-69
2022/05/23 08:22:40;;;;;;;2.00;1.75;;;;;;;28.70;44.19;101846.53;4182070;28;20037;-69
2022/05/23 08:24:42;;;;;;;3.45;1.98;;;;;;;28.77;43.86;101858.25;4182395;28;20098;-69
2022/05/23 08:26:44;;;;;;;3.47;1.73;;;;;;;28.75;43.63;101860.50;4164665;28;20045;-68
2022/05/23 08:28:45;;;;;;;3.05;1.92;;;;;;;28.75;44.30;101860.50;4182305;28;20041;-69
2022/05/23 08:30:47;;;;;;;2.40;2.20;;;;;;;28.67;43.57;101864.06;4182426;28;20049;-69
2022/05/23 08:32:51;;;;;;;2.25;2.05;;;;;;;28.72;44.13;101877.19;4181041;28;20519;-69
2022/05/23 08:34:52;;;;;;;2.45;1.90;;;;;;;28.73;44.20;101888.19;4182076;28;20107;-69
2022/05/23 08:36:55;;;;;;;1.80;1.63;;;;;;;28.73;44.02;101888.19;4181683;28;20090;-69
2022/05/23 08:38:56;;;;;;;3.30;1.83;;;;;;;28.72;43.87;101889.28;4181916;28;20138;-69
2022/05/23 08:41:08;;;;;;;2.15;1.95;;;;;;;28.68;43.71;101893.88;4182822;28;20428;-69
2022/05/23 08:43:12;;;;;;;1.92;1.70;;;;;;;28.62;43.27;101893.16;4179152;28;20037;-69
2022/05/23 08:45:22;;;;;;;1.75;1.65;;;;;;;28.71;43.54;101904.53;4182060;28;20063;-69
2022/05/23 08:47:36;;;;;;;2.17;1.88;;;;;;;28.68;43.13;101910.78;4174009;28;20059;-69
2022/05/23 08:49:55;;;;;;;2.33;1.83;;;;;;;28.68;42.93;101916.41;4166111;28;20436;-69
2022/05/23 08:52:35;;;;;;;2.30;1.30;;;;;;;28.60;42.90;101903.91;4165483;28;20045;-68
2022/05/23 08:55:01;;;;;;;1.88;1.63;;;;;;;28.65;42.84;101914.25;4160540;28;20128;-69
2022/05/23 08:57:06;;;;;;;2.03;1.60;;;;;;;28.66;42.31;101907.44;4177390;28;20072;-70
2022/05/23 08:59:19;;;;;;;1.50;1.40;;;;;;;28.65;42.35;101910.59;4182784;28;20021;-68
2022/05/23 09:02:04;;;;;;;2.58;1.83;;;;;;;28.60;42.24;101911.53;4170793;28;20097;-68
2022/05/23 09:04:13;;;;;;;1.92;1.48;;;;;;;28.61;42.00;101896.28;4124674;28;20126;-68
2022/05/23 09:06:41;;;;;;;1.60;1.50;;;;;;;28.59;42.25;101913.50;4129414;28;20113;-70
2022/05/23 09:08:52;;;;;;;1.63;1.52;;;;;;;28.59;42.28;101909.81;4139240;28;20095;-69
2022/05/23 09:11:07;;;;;;;2.10;1.67;;;;;;;28.49;41.93;101908.03;4170947;28;20029;-69
2022/05/23 09:13:12;;;;;;;3.40;1.40;;;;;;;28.56;42.07;101925.38;4175795;28;20045;-69
2022/05/23 09:15:13;;;;;;;1.60;1.50;;;;;;;28.56;42.07;101924.53;4166524;28;20045;-69
2022/05/23 09:17:25;;;;;;;2.10;1.80;;;;;;;28.43;41.99;101914.91;4172547;28;20075;-69
2022/05/23 09:19:37;;;;;;;1.30;1.20;;;;;;;28.53;42.40;101936.41;4179985;28;20127;-70
2022/05/23 09:23:58;;;;;;;3.75;1.40;;;;;;;28.50;42.17;101931.41;4174561;28;20103;-69
2022/05/23 09:26:02;;;;;;;1.52;1.42;;;;;;;28.50;42.04;101940.72;4170961;28;20049;-69
2022/05/23 09:28:07;;;;;;;1.52;1.42;;;;;;;28.50;42.43;101953.91;4179582;28;20045;-69
2022/05/23 09:30:13;;;;;;;;;;;;;;;28.48;42.33;101953.41;4181902;28;20436;-69
2022/05/23 09:32:17;;;;;;;1.52;1.38;;;;;;;28.52;42.13;101951.66;4171052;28;19916;-69
2022/05/23 09:34:45;;;;;;;2.28;1.55;;;;;;;28.49;42.29;101964.34;4181603;28;20033;-69
2022/05/23 09:36:47;;;;;;;2.28;1.55;;;;;;;28.52;42.35;101974.19;4171093;28;20099;-69
2022/05/23 09:38:55;;;;;;;1.75;1.35;;;;;;;28.50;41.89;101984.91;4168291;28;20029;-69
2022/05/23 09:40:56;;;;;;;2.53;1.20;;;;;;;28.48;42.16;101979.59;4176677;28;20416;-69
2022/05/23 09:48:27;;;;;;;2.05;1.50;;;;;;;28.49;41.79;102011.38;4115196;28;20401;-69
2022/05/23 09:50:38;;;;;;;3.10;1.30;;;;;;;28.48;41.92;102006.91;4114362;28;20038;-70
2022/05/23 09:52:57;;;;;;;1.50;1.40;;;;;;;28.45;41.92;102004.69;4115175;28;20101;-69
2022/05/23 09:55:05;;;;;;;3.38;1.40;;;;;;;28.41;42.28;102006.44;4165749;28;20041;-69
2022/05/23 09:57:33;;;;;;;1.33;1.08;;;;;;;28.40;42.06;102018.84;4165248;28;20095;-69
2022/05/23 09:59:37;;;;;;;1.95;1.25;;;;;;;28.34;41.94;102007.69;4169191;28;20094;-69
2022/05/23 10:01:38;;;;;;;2.40;1.38;;;;;;;28.39;41.83;102036.91;4164947;28;20041;-69
2022/05/23 10:03:52;;;;;;;1.35;1.17;;;;;;;28.39;42.28;102037.72;4178100;28;20178;-69
2022/05/23 10:06:13;;;;;;;1.45;1.35;;;;;;;28.35;42.17;102045.94;4164606;28;20488;-69
2022/05/23 10:08:38;;;;;;;2.05;1.48;;;;;;;28.36;42.41;102050.47;4168851;28;20046;-70
2022/05/23 10:10:58;;;;;;;1.15;1.05;;;;;;;28.37;41.81;102051.28;4176486;28;20033;-69
2022/05/23 10:13:32;;;;;;;1.05;1.02;;;;;;;28.35;41.97;102054.38;4163751;28;20045;-70
2022/05/23 10:15:36;;;;;;;1.70;1.10;;;;;;;28.36;42.07;102050.47;4165018;28;20459;-69
2022/05/23 10:17:41;;;;;;;3.45;1.27;;;;;;;28.35;41.62;102048.75;4168837;28;20037;-69
2022/05/23 10:19:42;;;;;;;3.30;1.40;;;;;;;28.36;41.93;102056.09;4181285;28;20090;-70
2022/05/23 10:21:44;;;;;;;1.33;1.17;;;;;;;28.35;41.88;102065.66;4168013;28;20045;-69
2022/05/23 10:24:17;;;;;;;1.23;1.13;;;;;;;28.31;42.24;102064.56;4163700;28;20099;-69
2022/05/23 10:26:24;;;;;;;2.35;1.10;;;;;;;28.34;41.80;102080.88;4130535;28;20485;-69
2022/05/23 10:28:44;;;;;;;1.50;0.90;;;;;;;28.34;41.82;102063.97;4163929;28;20365;-69
2022/05/23 10:31:15;;;;;;;1.60;1.30;;;;;;;28.24;41.66;102052.84;4173913;28;20046;-69
2022/05/23 10:33:17;;;;;;;1.58;1.10;;;;;;;28.34;41.46;102066.78;4177525;28;20106;-69
2022/05/23 10:35:31;;;;;;;2.55;1.40;;;;;;;28.34;41.76;102083.69;4167092;28;20041;-69
2022/05/23 10:37:36;;;;;;;1.38;1.17;;;;;;;28.26;41.42;102073.06;4167119;28;20076;-69